Time;durP1;ratioP1;P1;durP2;ratioP2;P2;SDS_P1;SDS_P2;PMS_P1;PMS_P2;Temp;Humidity;BMP_temperature;BMP_pressure;BME280_temperature;BME280_humidity;BME280_pressure;Samples;Min_cycle;Max_cycle;Signal;HPM_P1;HPM_P2
2021/03/10 00:00:55;;;;;;;;;;;;;;;3.85;100.00;99220.78;5019405;28;19927;-80
2021/03/10 00:03:20;;;;;;;;;;;;;;;3.91;100.00;99220.78;5037422;28;19916;-81
2021/03/10 00:05:46;;;;;;;;;;;;;;;3.82;100.00;99225.03;5035349;28;19958;-81
2021/03/10 00:08:12;;;;;;;;;;;;;;;3.65;100.00;99215.72;5036730;28;19913;-81
2021/03/10 00:10:37;;;;;;;;;;;;;;;3.64;100.00;99221.66;5033135;28;19971;-82
2021/03/10 00:13:03;;;;;;;;;;;;;;;3.58;100.00;99231.84;5052457;28;20458;-81
2021/03/10 00:15:28;;;;;;;;;;;;;;;3.61;100.00;99220.81;5054088;28;19964;-82
2021/03/10 00:17:53;;;;;;;;;;;;;;;3.59;100.00;99213.16;5019337;28;19927;-81
2021/03/10 00:20:19;;;;;;;;;;;;;;;3.59;100.00;99231.00;5051536;28;19952;-81
2021/03/10 00:22:44;;;;;;;;;;;;;;;3.63;100.00;99231.84;5052307;28;19929;-81
2021/03/10 00:25:10;;;;;;;;;;;;;;;3.62;100.00;99230.97;5035774;28;19917;-81
2021/03/10 00:27:36;;;;;;;;;;;;;;;3.78;100.00;99222.47;5034626;28;19919;-81
2021/03/10 00:30:02;;;;;;;;;;;;;;;3.80;100.00;99214.00;5034479;28;19916;-81
2021/03/10 00:32:28;;;;;;;;;;;;;;;3.92;100.00;99213.97;5051331;28;19921;-80
2021/03/10 00:34:54;;;;;;;;;;;;;;;3.96;100.00;99216.50;5035034;28;20676;-81
2021/03/10 00:37:20;;;;;;;;;;;;;;;3.94;100.00;99212.28;5036551;28;20429;-81
2021/03/10 00:39:46;;;;;;;;;;;;;;;3.74;100.00;99217.38;5051563;28;20009;-81
2021/03/10 00:42:11;;;;;;;;;;;;;;;3.80;100.00;99229.28;5035622;28;19916;-81
2021/03/10 00:44:36;;;;;;;;;;;;;;;3.95;100.00;99229.28;5011949;28;19940;-81
2021/03/10 00:47:02;;;;;;;;;;;;;;;4.22;100.00;99217.31;5052787;28;20020;-81
2021/03/10 00:49:27;;;;;;;;;;;;;;;4.26;100.00;99216.44;5034893;28;19917;-81
2021/03/10 00:51:52;;;;;;;;;;;;;;;3.85;100.00;99218.22;5025435;28;19931;-80
2021/03/10 00:54:18;;;;;;;;;;;;;;;3.75;100.00;99225.03;5026313;28;20019;-81
2021/03/10 00:56:43;;;;;;;;;;;;;;;3.96;100.00;99223.31;5034791;28;19912;-81
2021/03/10 00:59:08;;;;;;;;;;;;;;;4.28;100.00;99218.13;5051369;28;20734;-82
2021/03/10 01:01:34;;;;;;;;;;;;;;;4.22;100.00;99214.75;5036750;28;19921;-82
2021/03/10 01:04:00;;;;;;;;;;;;;;;4.27;100.00;99218.16;5051531;28;19956;-81
2021/03/10 01:06:25;;;;;;;;;;;;;;;4.32;100.00;99219.81;5010793;28;19920;-81
2021/03/10 01:08:51;;;;;;;;;;;;;;;4.17;100.00;99215.63;5037454;28;20312;-81
2021/03/10 01:11:16;;;;;;;;;;;;;;;4.21;100.00;99210.53;5049886;28;19920;-80
2021/03/10 01:13:42;;;;;;;;;;;;;;;4.08;100.00;99209.69;5053034;28;20463;-81
2021/03/10 01:16:07;;;;;;;;;;;;;;;4.06;100.00;99209.72;5035145;28;19923;-80
2021/03/10 01:18:32;;;;;;;;;;;;;;;4.05;100.00;99208.00;5034189;28;19917;-82
2021/03/10 01:20:58;;;;;;;;;;;;;;;4.28;100.00;99209.66;5011380;28;19923;-82
2021/03/10 01:23:23;;;;;;;;;;;;;;;4.14;100.00;99207.97;5051680;28;19925;-82
2021/03/10 01:25:49;;;;;;;;;;;;;;;4.37;100.00;99209.59;5036424;28;20347;-82
2021/03/10 01:28:14;;;;;;;;;;;;;;;4.85;100.00;99212.78;5035101;28;19935;-81
2021/03/10 01:30:39;;;;;;;;;;;;;;;5.10;99.96;99205.00;5034960;28;19916;-82
2021/03/10 01:33:05;;;;;;;;;;;;;;;5.19;99.48;99207.47;5050636;28;19921;-81
2021/03/10 01:35:30;;;;;;;;;;;;;;;5.24;98.35;99213.41;5035422;28;19934;-81
2021/03/10 01:37:55;;;;;;;;;;;;;;;5.21;98.81;99218.53;5019909;28;20029;-81
2021/03/10 01:40:21;;;;;;;;;;;;;;;4.48;100.00;99223.16;5056247;28;20328;-81
2021/03/10 01:42:46;;;;;;;;;;;;;;;4.30;100.00;99225.78;5046434;28;20003;-81
2021/03/10 01:45:12;;;;;;;;;;;;;;;4.35;100.00;99232.56;5036584;28;20358;-82
2021/03/10 01:47:42;;;;;;;;;;;;;;;4.61;100.00;99235.03;5052633;28;19916;-81
2021/03/10 01:50:08;;;;;;;;;;;;;;;4.86;99.89;99232.38;5039021;28;19968;-81
2021/03/10 01:52:33;;;;;;;;;;;;;;;5.01;99.53;99234.81;5039224;28;19986;-81
2021/03/10 01:54:59;;;;;;;;;;;;;;;5.13;98.73;99235.59;5030089;28;20374;-80
2021/03/10 01:57:24;;;;;;;;;;;;;;;5.29;97.44;99234.66;5039165;28;19924;-80
2021/03/10 01:59:49;;;;;;;;;;;;;;;5.40;97.51;99230.28;5055642;28;19928;-80
2021/03/10 02:02:15;;;;;;;;;;;;;;;5.31;98.03;99232.91;5056122;28;19920;-81
2021/03/10 02:04:41;;;;;;;;;;;;;;;5.37;97.81;99234.59;5055465;28;19916;-81
2021/03/10 02:07:09;;;;;;;;;;;;;;;5.32;97.13;99221.88;5029300;28;19962;-81
2021/03/10 02:09:40;;;;;;;;;;;;;;;4.99;97.45;99223.75;5020197;28;19920;-81
2021/03/10 02:12:41;;;;;;;;;;;;;;;5.38;97.93;99219.28;5057499;28;19920;-80
2021/03/10 02:15:18;;;;;;;;;;;;;;;5.27;97.33;99227.84;4972316;28;19918;-82
2021/03/10 02:17:44;;;;;;;;;;;;;;;4.53;100.00;99230.81;5025977;28;19920;-81
2021/03/10 02:20:28;;;;;;;;;;;;;;;4.22;100.00;99230.03;5053495;28;19923;-81
2021/03/10 02:23:12;;;;;;;;;;;;;;;4.17;100.00;99228.38;5028352;28;20923;-81
2021/03/10 02:25:40;;;;;;;;;;;;;;;4.47;100.00;99233.38;5027253;28;19928;-80
2021/03/10 02:28:06;;;;;;;;;;;;;;;4.15;100.00;99230.09;5028572;28;19963;-81
2021/03/10 02:30:32;;;;;;;;;;;;;;;3.94;100.00;99230.09;5027431;28;19944;-81
2021/03/10 02:32:57;;;;;;;;;;;;;;;3.89;100.00;99227.56;5001341;28;19960;-81
2021/03/10 02:35:23;;;;;;;;;;;;;;;3.92;100.00;99222.47;5046137;28;19951;-82
2021/03/10 02:37:50;;;;;;;;;;;;;;;4.44;100.00;99229.13;5012779;28;19955;-81
2021/03/10 02:40:16;;;;;;;;;;;;;;;5.08;100.00;99220.31;5003973;28;19960;-81
2021/03/10 02:42:41;;;;;;;;;;;;;;;4.92;99.73;99227.19;5003499;28;19960;-82
2021/03/10 02:45:07;;;;;;;;;;;;;;;5.13;97.96;99217.72;5021185;28;20115;-82
2021/03/10 02:47:33;;;;;;;;;;;;;;;5.40;97.24;99207.31;5016064;28;19982;-81
2021/03/10 02:49:58;;;;;;;;;;;;;;;5.39;96.85;99199.69;5002391;28;19916;-81
2021/03/10 02:52:23;;;;;;;;;;;;;;;5.28;96.65;99202.31;5028096;28;19921;-81
2021/03/10 02:54:49;;;;;;;;;;;;;;;5.03;97.48;99201.63;5012487;28;20290;-81
2021/03/10 02:57:14;;;;;;;;;;;;;;;5.12;96.37;99205.84;5028965;28;19921;-83
2021/03/10 02:59:40;;;;;;;;;;;;;;;4.65;100.00;99204.38;5028780;28;19920;-82
2021/03/10 03:02:05;;;;;;;;;;;;;;;4.82;99.46;99202.59;5035038;28;19917;-82
2021/03/10 03:04:30;;;;;;;;;;;;;;;5.33;97.80;99198.00;5044995;28;20031;-81
2021/03/10 03:06:56;;;;;;;;;;;;;;;4.43;100.00;99208.75;5043762;28;19928;-82
2021/03/10 03:09:21;;;;;;;;;;;;;;;4.22;100.00;99220.72;5019098;28;20339;-82
2021/03/10 03:11:47;;;;;;;;;;;;;;;4.87;100.00;99221.28;5027621;28;19921;-82
2021/03/10 03:14:12;;;;;;;;;;;;;;;4.96;98.37;99211.03;5044992;28;19978;-83
2021/03/10 03:16:38;;;;;;;;;;;;;;;4.88;99.60;99212.78;5017554;28;20789;-82
2021/03/10 03:19:03;;;;;;;;;;;;;;;5.31;97.98;99215.03;5027759;28;20001;-82
2021/03/10 03:21:28;;;;;;;;;;;;;;;5.30;97.88;99218.47;5018113;28;20063;-81
2021/03/10 03:23:54;;;;;;;;;;;;;;;5.45;97.34;99208.16;5029599;28;19927;-81
2021/03/10 03:26:19;;;;;;;;;;;;;;;5.54;96.31;99214.03;5035526;28;19917;-82
2021/03/10 03:28:44;;;;;;;;;;;;;;;5.29;96.09;99224.44;5037820;28;19921;-80
2021/03/10 03:31:10;;;;;;;;;;;;;;;4.30;100.00;99223.22;5052421;28;19912;-80
2021/03/10 03:33:35;;;;;;;;;;;;;;;4.72;100.00;99224.78;5038284;28;19917;-82
2021/03/10 03:36:01;;;;;;;;;;;;;;;4.72;98.61;99218.81;5035662;28;19928;-82
2021/03/10 03:38:26;;;;;;;;;;;;;;;4.94;99.79;99222.09;5040300;28;19923;-80
2021/03/10 03:40:52;;;;;;;;;;;;;;;4.79;99.34;99216.22;5022315;28;19916;-82
2021/03/10 03:43:18;;;;;;;;;;;;;;;4.91;98.55;99217.88;5035460;28;19916;-81
2021/03/10 03:45:44;;;;;;;;;;;;;;;4.44;99.69;99216.38;5037524;28;19916;-81
2021/03/10 03:48:10;;;;;;;;;;;;;;;4.64;100.00;99218.00;5012328;28;19952;-81
2021/03/10 03:50:36;;;;;;;;;;;;;;;5.18;98.17;99205.81;5035084;28;20003;-81
2021/03/10 03:53:01;;;;;;;;;;;;;;;4.81;97.76;99211.09;5036508;28;20018;-81
2021/03/10 03:55:27;;;;;;;;;;;;;;;4.64;99.44;99207.81;5050656;28;19975;-81
2021/03/10 03:57:52;;;;;;;;;;;;;;;4.76;98.61;99207.75;5052306;28;19920;-81
2021/03/10 04:00:19;;;;;;;;;;;;;;;5.03;97.79;99199.91;5020339;28;19916;-81
2021/03/10 04:02:45;;;;;;;;;;;;;;;4.99;97.09;99208.44;5034497;28;19943;-81
2021/03/10 04:05:11;;;;;;;;;;;;;;;5.02;96.91;99205.91;5036715;28;20975;-82
2021/03/10 04:07:47;;;;;;;;;;;;;;;5.21;96.80;99211.72;5011685;28;19927;-80
2021/03/10 04:10:12;;;;;;;;;;;;;;;5.16;95.74;99210.91;5025168;28;20493;-82
2021/03/10 04:12:38;;;;;;;;;;;;;;;5.22;96.32;99212.56;5017961;28;19917;-80
2021/03/10 04:15:03;;;;;;;;;;;;;;;5.15;96.66;99208.34;5034367;28;19927;-81
2021/03/10 04:17:29;;;;;;;;;;;;;;;4.34;99.51;99217.28;5053138;28;19966;-82
2021/03/10 04:19:54;;;;;;;;;;;;;;;4.09;100.00;99216.50;5028723;28;19920;-81
2021/03/10 04:22:19;;;;;;;;;;;;;;;4.51;100.00;99210.41;5019130;28;20287;-80
2021/03/10 04:24:45;;;;;;;;;;;;;;;4.57;99.62;99207.81;5052058;28;20691;-82
2021/03/10 04:27:11;;;;;;;;;;;;;;;4.90;98.11;99195.75;5037234;28;20157;-81
2021/03/10 04:29:36;;;;;;;;;;;;;;;4.33;99.27;99207.91;5037442;28;20011;-81
2021/03/10 04:32:02;;;;;;;;;;;;;;;3.36;100.00;99215.72;5018816;28;20489;-80
2021/03/10 04:34:27;;;;;;;;;;;;;;;3.58;100.00;99219.13;5035780;28;20600;-80
2021/03/10 04:36:52;;;;;;;;;;;;;;;3.85;100.00;99215.69;5052501;28;19972;-82
2021/03/10 04:39:18;;;;;;;;;;;;;;;4.32;100.00;99216.44;5056552;28;19963;-81
2021/03/10 04:41:43;;;;;;;;;;;;;;;4.46;99.36;99219.78;5029408;28;20294;-80
2021/03/10 04:44:08;;;;;;;;;;;;;;;4.02;100.00;99228.41;5053017;28;19916;-81
2021/03/10 04:46:34;;;;;;;;;;;;;;;3.73;100.00;99223.34;5034256;28;19955;-81
2021/03/10 04:48:59;;;;;;;;;;;;;;;3.85;100.00;99230.97;5039875;28;19923;-82
2021/03/10 04:51:25;;;;;;;;;;;;;;;3.56;100.00;99229.31;5052679;28;19970;-81
2021/03/10 04:53:50;;;;;;;;;;;;;;;4.04;100.00;99223.28;5036950;28;19917;-80
2021/03/10 04:56:15;;;;;;;;;;;;;;;4.18;100.00;99224.13;5036378;28;19974;-81
2021/03/10 04:58:41;;;;;;;;;;;;;;;4.01;100.00;99224.13;5052202;28;19963;-81
2021/03/10 05:01:06;;;;;;;;;;;;;;;4.05;100.00;99230.94;5019179;28;20314;-82
2021/03/10 05:03:31;;;;;;;;;;;;;;;4.42;99.35;99230.84;5051188;28;19939;-81
2021/03/10 05:05:57;;;;;;;;;;;;;;;3.91;100.00;99236.06;5032187;28;19917;-81
2021/03/10 05:08:22;;;;;;;;;;;;;;;4.10;100.00;99228.38;5032885;28;20887;-81
2021/03/10 05:10:48;;;;;;;;;;;;;;;4.57;97.65;99235.88;5027785;28;19923;-82
2021/03/10 05:13:13;;;;;;;;;;;;;;;4.53;97.39;99231.66;5017863;28;20020;-82
2021/03/10 05:15:38;;;;;;;;;;;;;;;4.76;95.52;99228.16;5035683;28;19928;-81
2021/03/10 05:18:04;;;;;;;;;;;;;;;4.81;95.19;99228.97;5054215;28;19921;-81
2021/03/10 05:20:29;;;;;;;;;;;;;;;4.69;95.21;99224.78;5037623;28;19917;-82
2021/03/10 05:22:54;;;;;;;;;;;;;;;4.80;95.20;99229.84;5036228;28;20458;-81
2021/03/10 05:25:20;;;;;;;;;;;;;;;4.57;94.92;99233.34;5030157;28;20461;-80
2021/03/10 05:27:45;;;;;;;;;;;;;;;4.71;95.38;99229.88;5055863;28;20755;-82
2021/03/10 05:30:11;;;;;;;;;;;;;;;4.76;95.00;99230.69;5054325;28;19923;-80
2021/03/10 05:32:36;;;;;;;;;;;;;;;4.78;94.60;99236.66;5036815;28;19952;-82
2021/03/10 05:35:02;;;;;;;;;;;;;;;4.83;95.39;99245.13;5035973;28;20792;-81
2021/03/10 05:37:27;;;;;;;;;;;;;;;4.70;95.45;99241.78;5035540;28;19920;-80
2021/03/10 05:39:53;;;;;;;;;;;;;;;4.82;94.79;99239.16;5035791;28;19913;-81
2021/03/10 05:42:18;;;;;;;;;;;;;;;4.76;94.45;99233.25;5036874;28;20405;-82
2021/03/10 05:44:44;;;;;;;;;;;;;;;4.69;94.87;99229.03;5035252;28;19917;-81
2021/03/10 05:47:09;;;;;;;;;;;;;;;4.50;93.92;99226.56;5012809;28;19916;-80
2021/03/10 05:49:34;;;;;;;;;;;;;;;4.36;95.69;99224.06;5019922;28;19994;-83
2021/03/10 05:52:03;;;;;;;;;;;;;;;4.08;97.29;99223.31;5054898;28;20325;-82
2021/03/10 05:54:29;;;;;;;;;;;;;;;4.41;95.54;99224.03;5055153;28;19927;-82
2021/03/10 05:56:55;;;;;;;;;;;;;;;4.28;94.87;99225.78;5037550;28;20007;-81
2021/03/10 05:59:20;;;;;;;;;;;;;;;4.35;94.48;99226.59;5020446;28;20624;-81
2021/03/10 06:01:45;;;;;;;;;;;;;;;4.14;95.63;99223.28;5014703;28;19920;-82
2021/03/10 06:04:11;;;;;;;;;;;;;;;3.88;95.83;99225.03;5054812;28;19916;-81
2021/03/10 06:06:40;;;;;;;;;;;;;;;4.24;95.33;99225.78;5054968;28;19916;-81
2021/03/10 06:09:18;;;;;;;;;;;;;;;4.01;94.53;99226.69;5053222;28;20011;-83
2021/03/10 06:11:53;;;;;;;;;;;;;;;4.04;95.44;99225.84;5036230;28;20003;-82
2021/03/10 06:14:18;;;;;;;;;;;;;;;3.69;96.50;99219.94;5054251;28;19920;-81
2021/03/10 06:16:44;;;;;;;;;;;;;;;3.83;96.54;99224.16;5036750;28;19924;-82
2021/03/10 06:19:09;;;;;;;;;;;;;;;4.03;94.79;99225.00;5036046;28;19947;-82
2021/03/10 06:21:35;;;;;;;;;;;;;;;3.90;95.20;99224.19;5037710;28;19923;-81
2021/03/10 06:24:04;;;;;;;;;;;;;;;4.03;94.74;99230.09;5019486;28;20399;-82
2021/03/10 06:26:35;;;;;;;;;;;;;;;3.92;94.59;99232.69;5020095;28;19932;-81
2021/03/10 06:29:01;;;;;;;;;;;;;;;3.66;96.45;99219.09;5035061;28;19952;-82
2021/03/10 06:31:31;;;;;;;;;;;;;;;3.69;96.54;99217.38;5007475;28;20029;-82
2021/03/10 06:34:09;;;;;;;;;;;;;;;3.65;95.75;99222.50;5035806;28;19940;-81
2021/03/10 06:36:36;;;;;;;;;;;;;;;3.57;96.63;99225.03;5029858;28;19931;-81
2021/03/10 06:39:02;;;;;;;;;;;;;;;3.27;98.37;99219.09;5035632;28;21121;-81
2021/03/10 06:41:41;;;;;;;;;;;;;;;3.45;98.04;99225.06;5020686;28;19916;-81
2021/03/10 06:44:19;;;;;;;;;;;;;;;3.50;97.37;99226.75;5034076;28;19955;-81
2021/03/10 06:46:49;;;;;;;;;;;;;;;3.82;96.30;99230.13;5053213;28;19944;-81
2021/03/10 06:49:14;;;;;;;;;;;;;;;3.75;96.07;99232.69;5037553;28;19967;-81
2021/03/10 06:51:49;;;;;;;;;;;;;;;4.03;95.10;99235.19;5037507;28;19967;-82
2021/03/10 06:54:14;;;;;;;;;;;;;;;3.48;96.58;99240.31;5053108;28;19935;-82
2021/03/10 06:56:40;;;;;;;;;;;;;;;3.47;96.55;99248.81;5035737;28;20374;-82
2021/03/10 06:59:06;;;;;;;;;;;;;;;3.75;96.71;99245.41;5054750;28;19916;-82
2021/03/10 07:01:38;;;;;;;;;;;;;;;3.87;95.75;99239.44;5054332;28;19916;-82
2021/03/10 07:04:04;;;;;;;;;;;;;;;3.82;96.91;99230.97;5034952;28;20382;-82
2021/03/10 07:06:30;;;;;;;;;;;;;;;4.00;95.51;99240.31;5035950;28;19923;-81
2021/03/10 07:08:55;;;;;;;;;;;;;;;4.09;95.92;99239.44;5036504;28;20007;-81
2021/03/10 07:11:21;;;;;;;;;;;;;;;3.90;94.82;99246.25;5037078;28;20354;-81
2021/03/10 07:13:46;;;;;;;;;;;;;;;3.71;96.63;99246.25;5022585;28;19912;-80
2021/03/10 07:16:12;;;;;;;;;;;;;;;3.82;96.25;99246.25;5033407;28;19917;-82
2021/03/10 07:18:38;;;;;;;;;;;;;;;3.93;95.84;99248.81;5038486;28;19921;-82
2021/03/10 07:21:04;;;;;;;;;;;;;;;4.10;96.52;99252.16;5037072;28;19912;-83
2021/03/10 07:23:29;;;;;;;;;;;;;;;3.87;96.37;99254.75;5009587;28;20224;-83
2021/03/10 07:25:55;;;;;;;;;;;;;;;3.93;97.36;99253.91;5001256;28;20339;-83
2021/03/10 07:28:22;;;;;;;;;;;;;;;4.12;96.49;99258.09;4983913;28;20379;-82
2021/03/10 07:30:48;;;;;;;;;;;;;;;4.07;97.17;99262.38;5000974;28;20024;-81
2021/03/10 07:33:15;;;;;;;;;;;;;;;4.05;96.66;99264.06;4982092;28;19949;-83
2021/03/10 07:35:53;;;;;;;;;;;;;;;3.98;97.95;99267.47;4982229;28;19921;-82
2021/03/10 07:38:34;;;;;;;;;;;;;;;3.84;98.16;99264.09;4997434;28;19928;-82
2021/03/10 07:41:00;;;;;;;;;;;;;;;3.88;97.89;99265.81;5008113;28;19917;-82
2021/03/10 07:43:45;;;;;;;;;;;;;;;3.96;98.41;99258.97;5003831;28;20398;-82
2021/03/10 07:46:20;;;;;;;;;;;;;;;3.94;98.80;99255.59;5023502;28;19924;-83
2021/03/10 07:48:46;;;;;;;;;;;;;;;3.89;97.96;99257.28;4979861;28;19928;-83
2021/03/10 07:51:21;;;;;;;;;;;;;;;3.96;98.72;99264.06;4979536;28;20318;-81
2021/03/10 07:53:47;;;;;;;;;;;;;;;3.86;98.79;99268.34;4980166;28;20558;-82
2021/03/10 07:56:21;;;;;;;;;;;;;;;4.08;98.74;99274.28;4994570;28;19921;-82
2021/03/10 07:58:46;;;;;;;;;;;;;;;4.49;96.56;99275.84;4997064;28;19943;-82
2021/03/10 08:01:15;;;;;;;;;;;;;;;4.10;97.47;99267.44;4983006;28;19917;-82
2021/03/10 08:03:40;;;;;;;;;;;;;;;4.33;97.88;99258.91;4980454;28;19918;-82
2021/03/10 08:06:06;;;;;;;;;;;;;;;4.06;98.05;99254.72;4979371;28;20294;-82
2021/03/10 08:08:42;;;;;;;;;;;;;;;4.28;97.54;99265.72;4988105;28;19917;-82
2021/03/10 08:11:07;;;;;;;;;;;;;;;4.60;95.83;99263.91;4999070;28;19920;-82
2021/03/10 08:13:32;;;;;;;;;;;;;;;4.49;96.20;99263.09;5022905;28;19917;-82
2021/03/10 08:16:04;;;;;;;;;;;;;;;4.23;97.83;99254.69;4991913;28;19917;-82
2021/03/10 08:18:32;;;;;;;;;;;;;;;4.37;96.81;99258.91;4995230;28;19932;-81
2021/03/10 08:20:59;;;;;;;;;;;;;;;4.45;97.13;99258.91;5004514;28;19924;-82
2021/03/10 08:23:41;;;;;;;;;;;;;;;4.72;96.63;99264.72;5008973;28;19932;-81
2021/03/10 08:26:09;;;;;;;;;;;;;;;4.67;95.52;99257.09;5030919;28;19924;-81
2021/03/10 08:28:39;;;;;;;;;;;;;;;4.81;96.35;99263.00;5014955;28;19917;-81
2021/03/10 08:31:09;;;;;;;;;;;;;;;4.98;95.36;99265.47;4999458;28;19947;-82
2021/03/10 08:33:47;;;;;;;;;;;;;;;4.51;96.76;99274.16;5007432;28;20000;-82
2021/03/10 08:36:13;;;;;;;;;;;;;;;4.61;97.48;99269.88;5011727;28;19925;-82
2021/03/10 08:38:38;;;;;;;;;;;;;;;4.89;96.49;99268.06;5006269;28;19972;-81
2021/03/10 08:41:04;;;;;;;;;;;;;;;4.81;97.42;99264.69;5013497;28;19916;-82
2021/03/10 08:43:30;;;;;;;;;;;;;;;5.00;96.79;99266.31;5012674;28;19917;-83
2021/03/10 08:45:56;;;;;;;;;;;;;;;4.97;96.20;99257.81;4989263;28;20366;-81
2021/03/10 08:48:22;;;;;;;;;;;;;;;5.21;95.62;99262.78;5021817;28;19913;-81
2021/03/10 08:50:48;;;;;;;;;;;;;;;5.36;94.83;99266.09;5013719;28;19924;-81
2021/03/10 08:53:14;;;;;;;;;;;;;;;5.49;95.25;99256.63;4998616;28;19978;-81
2021/03/10 08:55:41;;;;;;;;;;;;;;;5.03;94.83;99256.06;4998668;28;20294;-81
2021/03/10 08:58:13;;;;;;;;;;;;;;;5.44;94.56;99249.84;5012644;28;20366;-82
2021/03/10 09:00:39;;;;;;;;;;;;;;;5.40;94.75;99243.06;5011388;28;19952;-81
2021/03/10 09:03:15;;;;;;;;;;;;;;;5.52;94.77;99248.94;5007153;28;19927;-81
2021/03/10 09:05:40;;;;;;;;;;;;;;;5.73;93.76;99246.22;5015827;28;19913;-82
2021/03/10 09:08:07;;;;;;;;;;;;;;;5.82;92.46;99246.16;4980553;28;19944;-81
2021/03/10 09:10:32;;;;;;;;;;;;;;;5.84;92.78;99249.53;5031536;28;19932;-82
2021/03/10 09:12:57;;;;;;;;;;;;;;;6.05;92.77;99250.25;5013188;28;19921;-80
2021/03/10 09:15:27;;;;;;;;;;;;;;;5.89;93.02;99246.09;5007911;28;19943;-81
2021/03/10 09:17:52;;;;;;;;;;;;;;;6.31;92.11;99238.88;4995254;28;19918;-81
2021/03/10 09:20:28;;;;;;;;;;;;;;;6.04;91.52;99249.41;4997834;28;19917;-81
2021/03/10 09:22:53;;;;;;;;;;;;;;;6.22;91.12;99235.56;5018994;28;19925;-81
2021/03/10 09:25:26;;;;;;;;;;;;;;;6.31;91.14;99234.63;5025386;28;19996;-81
2021/03/10 09:28:21;;;;;;;;;;;;;;;6.27;90.39;99233.81;5030848;28;20742;-81
2021/03/10 09:30:48;;;;;;;;;;;;;;;6.08;91.37;99232.31;5031326;28;20202;-81
2021/03/10 09:33:27;;;;;;;;;;;;;;;6.60;90.76;99236.84;5024064;28;19928;-81
2021/03/10 09:35:53;;;;;;;;;;;;;;;6.37;91.73;99231.16;5032082;28;20590;-81
2021/03/10 09:38:20;;;;;;;;;;;;;;;6.18;90.62;99217.72;5015884;28;19916;-81
2021/03/10 09:40:46;;;;;;;;;;;;;;;6.07;91.21;99217.84;5025130;28;19917;-81
2021/03/10 09:43:16;;;;;;;;;;;;;;;6.46;90.51;99213.97;5030528;28;19917;-80
2021/03/10 09:45:42;;;;;;;;;;;;;;;6.46;90.42;99211.44;5030010;28;20004;-80
2021/03/10 09:48:15;;;;;;;;;;;;;;;6.51;90.16;99208.81;5012420;28;20398;-80
2021/03/10 09:50:43;;;;;;;;;;;;;;;6.41;90.81;99204.66;5015342;28;20003;-80
2021/03/10 09:53:11;;;;;;;;;;;;;;;6.36;90.75;99198.75;5032579;28;20043;-80
2021/03/10 09:55:37;;;;;;;;;;;;;;;6.33;91.18;99197.09;5025088;28;19967;-82
2021/03/10 09:58:06;;;;;;;;;;;;;;;6.34;91.44;99196.25;5026598;28;20366;-81
2021/03/10 10:00:31;;;;;;;;;;;;;;;6.56;90.43;99193.41;5021943;28;19920;-81
2021/03/10 10:02:57;;;;;;;;;;;;;;;6.60;90.50;99193.34;5030262;28;19916;-80
2021/03/10 10:05:27;;;;;;;;;;;;;;;6.30;91.07;99191.19;5029855;28;19939;-80
2021/03/10 10:07:53;;;;;;;;;;;;;;;6.82;90.33;99185.38;5024811;28;20283;-80
2021/03/10 10:10:19;;;;;;;;;;;;;;;6.53;90.94;99183.22;5027377;28;20389;-80
2021/03/10 10:12:46;;;;;;;;;;;;;;;6.76;90.37;99188.03;5029617;28;19963;-76
2021/03/10 10:15:12;;;;;;;;;;;;;;;6.71;90.61;99188.09;5013102;28;19921;-80
2021/03/10 10:17:40;;;;;;;;;;;;;;;7.02;90.34;99178.25;5027218;28;19938;-79
2021/03/10 10:20:05;;;;;;;;;;;;;;;7.00;89.74;99185.13;5017567;28;20420;-81
2021/03/10 10:22:31;;;;;;;;;;;;;;;6.62;90.47;99171.13;5018297;28;19927;-80
2021/03/10 10:24:56;;;;;;;;;;;;;;;6.64;90.83;99166.84;5020381;28;19921;-80
2021/03/10 10:27:21;;;;;;;;;;;;;;;6.78;91.32;99165.81;5008062;28;20409;-79
2021/03/10 10:29:47;;;;;;;;;;;;;;;6.67;90.92;99159.13;5026141;28;21097;-80
2021/03/10 10:32:15;;;;;;;;;;;;;;;7.03;90.59;99159.47;5034830;28;19921;-79
2021/03/10 10:34:40;;;;;;;;;;;;;;;6.97;90.11;99154.44;5019539;28;19917;-79
2021/03/10 10:37:06;;;;;;;;;;;;;;;7.18;89.83;99152.41;5018453;28;19917;-79
2021/03/10 10:39:31;;;;;;;;;;;;;;;7.23;90.28;99151.50;5037114;28;19928;-79
2021/03/10 10:41:57;;;;;;;;;;;;;;;7.29;90.00;99153.09;5018440;28;20428;-80
2021/03/10 10:44:22;;;;;;;;;;;;;;;7.21;89.82;99147.25;5000204;28;20024;-80
2021/03/10 10:46:47;;;;;;;;;;;;;;;7.11;89.85;99156.78;5023498;28;19917;-81
2021/03/10 10:49:13;;;;;;;;;;;;;;;7.39;89.60;99152.09;5015998;28;19917;-80
2021/03/10 10:51:38;;;;;;;;;;;;;;;7.13;89.19;99152.50;5024239;28;20562;-80
2021/03/10 10:54:04;;;;;;;;;;;;;;;7.33;89.04;99154.75;5015875;28;19913;-79
2021/03/10 10:56:29;;;;;;;;;;;;;;;7.31;88.99;99148.78;5023719;28;19979;-80
2021/03/10 10:58:55;;;;;;;;;;;;;;;7.65;88.37;99155.91;5034701;28;20016;-80
2021/03/10 11:01:20;;;;;;;;;;;;;;;7.74;87.96;99151.47;5024082;28;19988;-79
2021/03/10 11:03:46;;;;;;;;;;;;;;;7.78;87.95;99149.69;5023985;28;20382;-80
2021/03/10 11:06:11;;;;;;;;;;;;;;;7.82;88.11;99148.75;5018279;28;19971;-80
2021/03/10 11:08:37;;;;;;;;;;;;;;;7.86;88.92;99152.09;5017364;28;20378;-80
2021/03/10 11:11:02;;;;;;;;;;;;;;;7.76;87.42;99146.31;5023068;28;19917;-80
2021/03/10 11:13:28;;;;;;;;;;;;;;;7.72;86.89;99149.78;5017952;28;20001;-80
2021/03/10 11:15:53;;;;;;;;;;;;;;;8.20;87.31;99152.31;5033737;28;19913;-80
2021/03/10 11:18:18;;;;;;;;;;;;;;;8.10;87.14;99161.06;5034220;28;20424;-80
2021/03/10 11:20:44;;;;;;;;;;;;;;;8.23;86.50;99156.53;5035086;28;19964;-81
2021/03/10 11:23:09;;;;;;;;;;;;;;;8.61;86.29;99148.06;5027766;28;20283;-80
2021/03/10 11:25:35;;;;;;;;;;;;;;;8.51;87.06;99151.72;5009293;28;20286;-80
2021/03/10 11:28:00;;;;;;;;;;;;;;;8.65;86.40;99148.84;5033691;28;19920;-80
2021/03/10 11:30:26;;;;;;;;;;;;;;;8.61;85.73;99142.94;5017145;28;19913;-79
2021/03/10 11:32:51;;;;;;;;;;;;;;;8.58;86.18;99132.75;5025754;28;19920;-80
2021/03/10 11:35:16;;;;;;;;;;;;;;;8.44;85.07;99129.59;5037143;28;19958;-80
2021/03/10 11:37:42;;;;;;;;;;;;;;;8.63;85.22;99138.59;5036639;28;19912;-80
2021/03/10 11:40:08;;;;;;;;;;;;;;;8.64;84.56;99135.16;5052565;28;20392;-81
2021/03/10 11:42:33;;;;;;;;;;;;;;;8.69;84.82;99138.47;5054509;28;19917;-79
2021/03/10 11:44:59;;;;;;;;;;;;;;;8.72;84.84;99133.28;5027381;28;19966;-80
2021/03/10 11:47:24;;;;;;;;;;;;;;;8.70;83.92;99136.75;5031506;28;19925;-80
2021/03/10 11:49:50;;;;;;;;;;;;;;;8.51;83.88;99136.31;5035611;28;19916;-80
2021/03/10 11:52:17;;;;;;;;;;;;;;;8.66;83.96;99128.25;5018988;28;20071;-79
2021/03/10 11:54:43;;;;;;;;;;;;;;;8.92;83.51;99129.41;5028248;28;19916;-79
2021/03/10 11:57:08;;;;;;;;;;;;;;;8.89;83.57;99114.06;5026945;28;20861;-80
2021/03/10 11:59:33;;;;;;;;;;;;;;;8.86;83.50;99122.69;5033934;28;19923;-80
2021/03/10 12:02:00;;;;;;;;;;;;;;;9.08;83.66;99109.34;5057434;28;20328;-80
2021/03/10 12:04:25;;;;;;;;;;;;;;;9.15;81.98;99108.31;5035202;28;19916;-80
2021/03/10 12:06:51;;;;;;;;;;;;;;;9.12;82.41;99109.25;5049413;28;19913;-80
2021/03/10 12:09:18;;;;;;;;;;;;;;;9.18;82.17;99098.78;5035565;28;20038;-82
2021/03/10 12:11:45;;;;;;;;;;;;;;;9.52;81.89;99097.94;5034159;28;19921;-82
2021/03/10 12:14:10;;;;;;;;;;;;;;;9.46;82.42;99092.94;5038177;28;19971;-80
2021/03/10 12:16:36;;;;;;;;;;;;;;;9.49;81.26;99102.31;5053689;28;19963;-81
2021/03/10 12:19:01;;;;;;;;;;;;;;;9.59;81.35;99099.47;5051759;28;19927;-81
2021/03/10 12:21:26;;;;;;;;;;;;;;;9.44;80.78;99087.00;5018938;28;19932;-80
2021/03/10 12:23:52;;;;;;;;;;;;;;;9.55;82.01;99092.69;5032743;28;19986;-82
2021/03/10 12:26:17;;;;;;;;;;;;;;;9.80;81.32;99087.75;5035332;28;20450;-81
2021/03/10 12:28:42;;;;;;;;;;;;;;;9.96;81.79;99083.03;5050584;28;20325;-81
2021/03/10 12:31:08;;;;;;;;;;;;;;;9.98;80.54;99085.56;5052172;28;20561;-80
2021/03/10 12:33:33;;;;;;;;;;;;;;;10.22;80.50;99090.00;5033719;28;19940;-81
2021/03/10 12:35:59;;;;;;;;;;;;;;;10.11;80.86;99083.50;5052645;28;19974;-81
2021/03/10 12:38:24;;;;;;;;;;;;;;;9.77;81.20;99074.16;5054853;28;19994;-80
2021/03/10 12:40:50;;;;;;;;;;;;;;;9.64;80.07;99071.88;5034696;28;19970;-81
2021/03/10 12:43:15;;;;;;;;;;;;;;;9.89;79.41;99071.22;5033201;28;19920;-81
2021/03/10 12:45:41;;;;;;;;;;;;;;;10.18;79.21;99072.13;5051912;28;19924;-81
2021/03/10 12:48:06;;;;;;;;;;;;;;;10.30;79.32;99063.22;5034665;28;19916;-82
2021/03/10 12:50:32;;;;;;;;;;;;;;;10.14;78.87;99062.81;5034891;28;20324;-81
2021/03/10 12:52:57;;;;;;;;;;;;;;;10.25;78.76;99063.34;5035132;28;19921;-80